Time;durP1;ratioP1;P1;durP2;ratioP2;P2;SDS_P1;SDS_P2;PMS_P1;PMS_P2;Temp;Humidity;BMP_temperature;BMP_pressure;BME280_temperature;BME280_humidity;BME280_pressure;Samples;Min_cycle;Max_cycle;Signal;HPM_P1;HPM_P2
2024/04/16 00:00:37;;;;;;;6.55;0.00;;;7.30;99.90;;;;;;5607087;25;20000;-79
2024/04/16 00:03:03;;;;;;;2.95;0.40;;;7.40;99.90;;;;;;5607069;25;19992;-79
2024/04/16 00:05:29;;;;;;;4.38;0.10;;;7.40;99.90;;;;;;5606243;25;20040;-79
2024/04/16 00:07:56;;;;;;;6.50;0.38;;;7.40;99.90;;;;;;5573680;25;20000;-79
2024/04/16 00:10:22;;;;;;;3.83;0.03;;;7.50;99.90;;;;;;5607061;25;20334;-79
2024/04/16 00:12:48;;;;;;;8.27;0.20;;;7.50;99.90;;;;;;5573739;25;19992;-79
2024/04/16 00:15:14;;;;;;;4.97;0.10;;;7.60;99.90;;;;;;5605631;25;20003;-78
2024/04/16 00:17:39;;;;;;;2.47;0.80;;;7.60;99.90;;;;;;5571650;25;19988;-78
2024/04/16 00:20:06;;;;;;;4.22;0.40;;;7.70;99.90;;;;;;5571983;25;20007;-78
2024/04/16 00:22:33;;;;;;;13.93;1.45;;;7.70;99.90;;;;;;5604193;25;20003;-78
2024/04/16 00:24:58;;;;;;;5.35;0.00;;;7.70;99.90;;;;;;5571050;25;20006;-79
2024/04/16 00:27:24;;;;;;;8.95;0.50;;;7.60;99.90;;;;;;5571464;25;20332;-79
2024/04/16 00:29:50;;;;;;;5.88;0.32;;;7.70;99.90;;;;;;5571459;25;19999;-79
2024/04/16 00:32:15;;;;;;;4.70;0.03;;;7.60;99.90;;;;;;5604550;25;19996;-78
2024/04/16 00:34:41;;;;;;;3.92;0.10;;;7.70;99.90;;;;;;5605123;25;19992;-78
2024/04/16 00:37:06;;;;;;;5.88;0.08;;;7.80;99.90;;;;;;5604179;25;19992;-78
2024/04/16 00:39:32;;;;;;;4.05;0.20;;;7.70;99.90;;;;;;5604101;25;20343;-78
2024/04/16 00:41:58;;;;;;;6.43;0.95;;;7.70;99.90;;;;;;5603925;25;20003;-79
2024/04/16 00:44:23;;;;;;;3.15;0.15;;;7.70;99.90;;;;;;5571518;25;20004;-79
2024/04/16 00:46:50;;;;;;;1.30;0.00;;;7.60;99.90;;;;;;5571248;25;19996;-78
2024/04/16 00:49:16;;;;;;;5.40;0.45;;;7.60;99.90;;;;;;5604869;25;20059;-78
2024/04/16 00:51:42;;;;;;;6.95;0.35;;;7.50;99.90;;;;;;5571348;25;20004;-78
2024/04/16 00:54:09;;;;;;;6.43;0.30;;;7.40;99.90;;;;;;5604402;25;20065;-78
2024/04/16 00:56:36;;;;;;;4.85;0.08;;;7.40;99.90;;;;;;5571430;25;20063;-78
2024/04/16 00:59:05;;;;;;;2.15;0.10;;;7.40;99.90;;;;;;5604855;25;20002;-78
2024/04/16 01:01:30;;;;;;;;;;;7.40;99.90;;;;;;5570135;25;20024;-79
2024/04/16 01:03:56;;;;;;;4.20;0.98;;;7.30;99.90;;;;;;5604393;25;19922;-78
2024/04/16 01:06:23;;;;;;;10.88;0.55;;;7.40;99.90;;;;;;5604773;25;20457;-79
2024/04/16 01:08:49;;;;;;;6.57;0.63;;;7.30;99.90;;;;;;5571816;25;19995;-78
2024/04/16 01:11:28;;;;;;;6.28;0.80;;;7.40;99.90;;;;;;5571344;25;20347;-78
2024/04/16 01:13:57;;;;;;;;;;;7.30;99.90;;;;;;5604449;25;19995;-78
2024/04/16 01:16:22;;;;;;;;;;;7.30;99.90;;;;;;5604953;25;19926;-78
2024/04/16 01:18:48;;;;;;;5.80;0.30;;;7.20;99.90;;;;;;5570578;25;20265;-78
2024/04/16 01:21:14;;;;;;;0.43;0.00;;;7.40;99.90;;;;;;5571043;25;19992;-78
2024/04/16 01:23:40;;;;;;;3.17;0.00;;;7.10;99.90;;;;;;5571754;25;19992;-78
2024/04/16 01:26:06;;;;;;;7.45;0.00;;;7.20;99.90;;;;;;5604696;25;19996;-79
2024/04/16 01:28:32;;;;;;;7.65;0.47;;;7.20;99.90;;;;;;5571068;25;19996;-78
2024/04/16 01:30:57;;;;;;;1.88;0.00;;;7.40;99.90;;;;;;5571005;25;20020;-78
2024/04/16 01:33:23;;;;;;;4.03;0.30;;;7.10;99.90;;;;;;5604315;25;19992;-79
2024/04/16 01:35:48;;;;;;;1.60;0.22;;;7.20;99.90;;;;;;5604763;25;19996;-79
2024/04/16 01:38:14;;;;;;;6.55;0.55;;;7.20;99.90;;;;;;5603320;25;20006;-80
2024/04/16 01:40:40;;;;;;;2.70;0.05;;;7.30;99.90;;;;;;5604821;25;20007;-79
2024/04/16 01:43:05;;;;;;;3.20;0.00;;;7.20;99.90;;;;;;5605291;25;19992;-79
2024/04/16 01:45:31;;;;;;;2.80;0.00;;;7.10;99.90;;;;;;5605576;25;20003;-78
2024/04/16 01:47:57;;;;;;;0.08;0.00;;;6.90;99.90;;;;;;5604620;25;19996;-78
2024/04/16 01:50:22;;;;;;;0.20;0.00;;;6.70;99.90;;;;;;5605251;25;19992;-78
2024/04/16 01:52:48;;;;;;;2.35;0.00;;;6.40;99.90;;;;;;5570744;25;19996;-79
2024/04/16 01:55:14;;;;;;;0.65;0.00;;;6.30;99.90;;;;;;5604627;25;20007;-79
2024/04/16 01:57:39;;;;;;;4.60;0.35;;;6.00;99.90;;;;;;5604213;25;19996;-79
2024/04/16 02:00:06;;;;;;;1.25;0.00;;;6.00;99.90;;;;;;5603290;25;19996;-78
2024/04/16 02:02:35;;;;;;;0.50;0.00;;;5.90;99.90;;;;;;5603581;25;20459;-78
2024/04/16 02:05:04;;;;;;;4.45;0.25;;;5.90;99.90;;;;;;5602869;25;20068;-78
2024/04/16 02:07:30;;;;;;;2.15;0.47;;;5.90;99.90;;;;;;5603566;25;20444;-78
2024/04/16 02:09:56;;;;;;;0.10;0.00;;;6.00;99.90;;;;;;5570705;25;19998;-79
2024/04/16 02:12:22;;;;;;;4.70;0.00;;;6.00;99.90;;;;;;5603402;25;19992;-79
2024/04/16 02:14:49;;;;;;;2.55;0.00;;;6.00;99.90;;;;;;5605231;25;20339;-78
2024/04/16 02:17:15;;;;;;;0.88;0.00;;;6.00;99.90;;;;;;5571453;25;19988;-78
2024/04/16 02:19:41;;;;;;;5.60;0.00;;;5.90;99.90;;;;;;5572201;25;19988;-78
2024/04/16 02:22:07;;;;;;;1.85;0.00;;;5.90;99.90;;;;;;5605858;25;20007;-78
2024/04/16 02:24:33;;;;;;;2.15;0.00;;;5.90;99.90;;;;;;5604453;25;20448;-78
2024/04/16 02:26:58;;;;;;;5.25;0.40;;;5.90;99.90;;;;;;5604190;25;19992;-76
2024/04/16 02:29:26;;;;;;;0.05;0.00;;;5.80;99.90;;;;;;5570449;25;20461;-78
2024/04/16 02:31:51;;;;;;;0.77;0.10;;;5.80;99.90;;;;;;5570553;25;20413;-77
2024/04/16 02:34:18;;;;;;;0.55;0.00;;;6.00;99.90;;;;;;5605085;25;19999;-77
2024/04/16 02:36:44;;;;;;;3.20;0.00;;;5.60;99.90;;;;;;5571519;25;19992;-77
2024/04/16 02:39:09;;;;;;;0.32;0.00;;;5.60;99.90;;;;;;5604513;25;19992;-77
2024/04/16 02:41:35;;;;;;;0.32;0.00;;;5.50;99.90;;;;;;5603257;25;20066;-78
2024/04/16 02:44:01;;;;;;;0.30;0.00;;;5.50;99.90;;;;;;5604320;25;20007;-78
2024/04/16 02:46:27;;;;;;;7.10;0.15;;;5.40;99.90;;;;;;5604060;25;19992;-78
2024/04/16 02:48:53;;;;;;;1.38;0.10;;;5.50;99.90;;;;;;5605064;25;20020;-77
2024/04/16 02:51:20;;;;;;;3.50;0.10;;;5.60;99.90;;;;;;5605062;25;20335;-77
2024/04/16 02:53:45;;;;;;;1.65;0.00;;;5.60;99.90;;;;;;5604902;25;20011;-77
2024/04/16 02:56:11;;;;;;;0.43;0.00;;;6.90;99.90;;;;;;5604545;25;20440;-77
2024/04/16 02:58:36;;;;;;;1.75;0.00;;;5.70;99.90;;;;;;5571652;25;19991;-77
2024/04/16 03:01:08;;;;;;;0.47;0.00;;;5.60;99.90;;;;;;5571158;25;19996;-77
2024/04/16 03:03:35;;;;;;;1.98;0.00;;;5.70;99.90;;;;;;5571862;25;19992;-76
2024/04/16 03:06:01;;;;;;;3.80;0.00;;;5.70;99.90;;;;;;5604651;25;20014;-77
2024/04/16 03:08:27;;;;;;;3.67;0.10;;;5.70;99.90;;;;;;5571179;25;19992;-77
2024/04/16 03:11:00;;;;;;;2.35;0.15;;;5.60;99.90;;;;;;5604101;25;20067;-78
2024/04/16 03:13:26;;;;;;;2.58;0.00;;;5.70;99.90;;;;;;5602861;25;20450;-78
2024/04/16 03:15:51;;;;;;;4.70;0.00;;;5.70;99.90;;;;;;5570343;25;19992;-78
2024/04/16 03:18:17;;;;;;;4.55;0.00;;;5.70;99.90;;;;;;5569182;25;20444;-78
2024/04/16 03:20:43;;;;;;;3.50;0.00;;;5.70;99.90;;;;;;5567897;25;19996;-78
2024/04/16 03:23:08;;;;;;;2.55;0.10;;;5.70;99.90;;;;;;5601968;25;19992;-78
2024/04/16 03:25:43;;;;;;;2.05;0.00;;;6.30;99.90;;;;;;5603516;25;20454;-78
2024/04/16 03:28:09;;;;;;;0.20;0.00;;;5.70;99.90;;;;;;5605290;25;19992;-78
2024/04/16 03:30:35;;;;;;;3.40;0.20;;;6.70;99.90;;;;;;5606046;25;20000;-78
2024/04/16 03:33:04;;;;;;;3.60;0.00;;;6.70;99.90;;;;;;5572687;25;20067;-79
2024/04/16 03:35:29;;;;;;;1.95;0.10;;;5.40;99.90;;;;;;5572871;25;19988;-79
2024/04/16 03:37:55;;;;;;;0.93;0.00;;;5.70;99.90;;;;;;5606356;25;20071;-79
2024/04/16 03:40:21;;;;;;;2.58;0.05;;;5.80;99.90;;;;;;5572791;25;19999;-78
2024/04/16 03:42:47;;;;;;;3.85;0.52;;;5.80;99.90;;;;;;5572047;25;20004;-78
2024/04/16 03:45:12;;;;;;;5.70;0.00;;;5.80;99.90;;;;;;5573199;25;19992;-78
2024/04/16 03:47:38;;;;;;;2.45;0.10;;;5.80;99.90;;;;;;5573245;25;19988;-78
2024/04/16 03:50:04;;;;;;;2.25;0.00;;;5.80;99.90;;;;;;5607053;25;19996;-78
2024/04/16 03:52:30;;;;;;;2.92;0.00;;;5.80;99.90;;;;;;5606660;25;19996;-78
2024/04/16 03:54:55;;;;;;;4.65;0.05;;;7.40;99.90;;;;;;5607255;25;19992;-78
2024/04/16 03:57:21;;;;;;;6.32;0.10;;;5.90;99.90;;;;;;5606261;25;20070;-78
2024/04/16 04:02:31;;;;;;;1.13;0.00;;;6.50;99.90;;;;;;5608060;25;20351;-78
2024/04/16 04:04:57;;;;;;;2.85;0.00;;;6.20;99.90;;;;;;5608137;25;19996;-78
2024/04/16 04:07:22;;;;;;;3.75;0.00;;;6.10;99.90;;;;;;5605977;25;20063;-78
2024/04/16 04:09:48;;;;;;;0.50;0.00;;;6.10;99.90;;;;;;5606201;25;20073;-78
2024/04/16 04:12:14;;;;;;;4.53;0.08;;;6.10;99.90;;;;;;5606605;25;19996;-78
2024/04/16 04:14:40;;;;;;;3.42;0.00;;;6.10;99.90;;;;;;5606767;25;20007;-78
2024/04/16 04:17:06;;;;;;;3.67;0.00;;;6.00;99.90;;;;;;5605992;25;19999;-78
2024/04/16 04:19:31;;;;;;;11.20;1.88;;;6.10;99.90;;;;;;5606545;25;19996;-78
2024/04/16 04:21:57;;;;;;;1.88;0.00;;;6.00;99.90;;;;;;5573346;25;19992;-78
2024/04/16 04:24:22;;;;;;;0.00;0.00;;;6.00;99.90;;;;;;5572978;25;20542;-78
2024/04/16 04:26:48;;;;;;;1.25;0.00;;;6.00;99.90;;;;;;5605831;25;20063;-78
2024/04/16 04:29:13;;;;;;;2.08;0.63;;;6.60;99.90;;;;;;5606377;25;19996;-78
2024/04/16 04:31:39;;;;;;;4.63;1.08;;;6.10;99.90;;;;;;5606975;25;20008;-78
2024/04/16 04:34:05;;;;;;;10.57;1.63;;;6.00;99.90;;;;;;5607102;25;19996;-78
2024/04/16 04:36:35;;;;;;;0.75;0.00;;;6.00;99.90;;;;;;5573325;25;20007;-78
2024/04/16 04:39:02;;;;;;;1.10;0.00;;;6.00;99.90;;;;;;5606842;25;19992;-78
2024/04/16 04:41:27;;;;;;;1.00;0.00;;;5.90;99.90;;;;;;5606843;25;20443;-78
2024/04/16 04:43:54;;;;;;;0.60;0.00;;;5.90;99.90;;;;;;5572522;25;20063;-78
2024/04/16 04:46:19;;;;;;;3.22;0.00;;;7.90;99.90;;;;;;5605432;25;20077;-78
2024/04/16 04:48:45;;;;;;;5.28;0.00;;;5.80;99.90;;;;;;5606697;25;20007;-78
2024/04/16 04:51:12;;;;;;;2.67;0.00;;;5.90;99.90;;;;;;5606481;25;20007;-78
2024/04/16 04:53:38;;;;;;;3.53;0.00;;;5.90;99.90;;;;;;5605865;25;20066;-78
2024/04/16 04:56:07;;;;;;;1.58;0.00;;;6.00;99.90;;;;;;5605891;25;19992;-78
2024/04/16 04:58:33;;;;;;;3.05;0.20;;;5.90;99.90;;;;;;5606353;25;20006;-78
2024/04/16 05:00:59;;;;;;;2.03;0.40;;;6.00;99.90;;;;;;5573137;25;20004;-78
2024/04/16 05:03:25;;;;;;;1.98;0.57;;;8.20;99.90;;;;;;5572419;25;19989;-78
2024/04/16 05:05:50;;;;;;;1.33;0.00;;;6.00;99.90;;;;;;5606687;25;20000;-78
2024/04/16 05:08:18;;;;;;;2.85;0.00;;;7.70;99.90;;;;;;5605722;25;20070;-77
2024/04/16 05:10:49;;;;;;;3.70;0.10;;;6.00;99.90;;;;;;5571723;25;19999;-78
2024/04/16 05:13:15;;;;;;;4.65;0.20;;;6.00;99.90;;;;;;5570908;25;19999;-78
2024/04/16 05:15:40;;;;;;;4.07;0.15;;;6.20;99.90;;;;;;5570990;25;19992;-78
2024/04/16 05:18:06;;;;;;;3.95;0.00;;;6.10;99.90;;;;;;5571126;25;20003;-79
2024/04/16 05:20:32;;;;;;;2.05;0.00;;;6.10;99.90;;;;;;5605099;25;20003;-78
2024/04/16 05:22:57;;;;;;;4.20;0.45;;;6.30;99.90;;;;;;5571129;25;20031;-79
2024/04/16 05:25:23;;;;;;;3.30;0.00;;;6.30;99.90;;;;;;5604781;25;19991;-79
2024/04/16 05:27:49;;;;;;;10.23;0.68;;;6.40;99.90;;;;;;5571098;25;19999;-79
2024/04/16 05:30:14;;;;;;;5.70;0.80;;;7.30;99.90;;;;;;5606810;25;20007;-79
2024/04/16 05:32:40;;;;;;;7.18;0.15;;;6.70;99.90;;;;;;5605895;25;20003;-80
2024/04/16 05:35:06;;;;;;;8.57;1.02;;;6.70;99.90;;;;;;5572227;25;20002;-79
2024/04/16 05:37:32;;;;;;;9.05;0.57;;;6.80;99.90;;;;;;5605311;25;20332;-80
2024/04/16 05:39:58;;;;;;;17.40;0.65;;;7.50;99.90;;;;;;5606246;25;20026;-80
2024/04/16 05:42:23;;;;;;;3.65;0.20;;;7.10;99.90;;;;;;5605874;25;20443;-80
2024/04/16 05:44:49;;;;;;;7.63;0.60;;;7.90;99.90;;;;;;5605324;25;20003;-80
2024/04/16 05:47:14;;;;;;;15.68;0.65;;;7.20;99.90;;;;;;5605019;25;19996;-80
2024/04/16 05:49:40;;;;;;;15.10;0.55;;;7.30;99.90;;;;;;5605110;25;19992;-80
2024/04/16 05:52:07;;;;;;;6.30;0.28;;;7.40;99.90;;;;;;5571942;25;20007;-80
2024/04/16 05:54:32;;;;;;;10.45;0.00;;;7.40;99.90;;;;;;5571908;25;19996;-79
2024/04/16 05:57:03;;;;;;;2.92;0.75;;;7.50;99.90;;;;;;5605443;25;20004;-80
2024/04/16 05:59:29;;;;;;;15.35;1.30;;;7.60;99.90;;;;;;5605600;25;20059;-79
2024/04/16 06:01:55;;;;;;;9.18;0.00;;;;;;;;;;5571042;25;19996;-79
2024/04/16 06:04:20;;;;;;;7.97;0.20;;;7.70;99.90;;;;;;5605366;25;20006;-80
2024/04/16 06:06:46;;;;;;;4.13;0.52;;;7.80;99.90;;;;;;5604773;25;20004;-80
2024/04/16 06:09:12;;;;;;;6.78;0.43;;;7.80;99.90;;;;;;5571452;25;20119;-80
2024/04/16 06:11:37;;;;;;;5.78;0.10;;;7.90;99.90;;;;;;5571378;25;20331;-80
2024/04/16 06:14:03;;;;;;;4.78;0.03;;;7.90;99.90;;;;;;5605064;25;20074;-80
2024/04/16 06:16:28;;;;;;;3.67;0.22;;;8.00;99.90;;;;;;5571391;25;20010;-79
2024/04/16 06:18:54;;;;;;;6.50;0.68;;;8.00;99.90;;;;;;5571482;25;20008;-79
2024/04/16 06:21:20;;;;;;;5.95;0.00;;;7.90;99.90;;;;;;5604354;25;19992;-79
2024/04/16 06:23:46;;;;;;;6.68;0.55;;;7.90;99.90;;;;;;5604641;25;20002;-79
2024/04/16 06:26:12;;;;;;;6.63;0.82;;;8.00;99.90;;;;;;5570879;25;20007;-80
2024/04/16 06:28:38;;;;;;;11.90;0.52;;;8.10;99.90;;;;;;5605075;25;19992;-80
2024/04/16 06:31:04;;;;;;;10.35;0.65;;;8.10;99.90;;;;;;5604668;25;20056;-80
2024/04/16 06:33:30;;;;;;;7.13;0.73;;;8.20;99.90;;;;;;5604201;25;19992;-80
2024/04/16 06:35:55;;;;;;;9.02;0.50;;;8.10;99.90;;;;;;5604905;25;20551;-80
2024/04/16 06:38:24;;;;;;;5.18;0.20;;;8.20;99.90;;;;;;5570958;25;19992;-80
2024/04/16 06:40:50;;;;;;;8.52;0.00;;;8.10;99.90;;;;;;5603975;25;20004;-79
2024/04/16 06:43:16;;;;;;;8.00;0.77;;;8.10;99.90;;;;;;5570995;25;19992;-80
2024/04/16 06:45:41;;;;;;;6.07;0.32;;;8.10;99.90;;;;;;5571202;25;20327;-79
2024/04/16 06:48:07;;;;;;;11.18;0.93;;;9.10;99.90;;;;;;5604493;25;19998;-81
2024/04/16 06:50:33;;;;;;;4.65;0.65;;;8.10;99.90;;;;;;5570917;25;20064;-80
2024/04/16 06:52:59;;;;;;;3.10;0.20;;;;;;;;;;5570924;25;20070;-81
2024/04/16 06:55:25;;;;;;;9.50;0.88;;;8.10;99.90;;;;;;5604642;25;20051;-80
2024/04/16 06:57:51;;;;;;;9.20;0.73;;;8.00;99.90;;;;;;5603961;25;20471;-80
2024/04/16 07:00:16;;;;;;;5.65;1.25;;;8.00;99.90;;;;;;5571510;25;20006;-81
2024/04/16 07:02:42;;;;;;;6.07;0.47;;;8.10;99.90;;;;;;5574394;25;19996;-81
2024/04/16 07:05:09;;;;;;;11.07;0.52;;;8.10;99.90;;;;;;5573111;25;20003;-81
2024/04/16 07:07:36;;;;;;;13.50;0.80;;;8.10;99.90;;;;;;5573962;25;20470;-82
2024/04/16 07:10:02;;;;;;;13.55;0.90;;;8.10;99.90;;;;;;5607905;25;20476;-81
2024/04/16 07:12:28;;;;;;;11.13;0.40;;;8.10;99.90;;;;;;5608080;25;20007;-81
2024/04/16 07:14:53;;;;;;;9.57;0.57;;;8.10;99.90;;;;;;5573807;25;20023;-81
2024/04/16 07:17:20;;;;;;;8.48;0.35;;;8.20;99.90;;;;;;5573566;25;20002;-81
2024/04/16 07:19:48;;;;;;;7.90;0.25;;;8.20;99.90;;;;;;5573762;25;20107;-81
2024/04/16 07:22:13;;;;;;;5.32;0.57;;;9.10;99.90;;;;;;5607690;25;19996;-81
2024/04/16 07:24:39;;;;;;;11.02;1.40;;;8.50;99.90;;;;;;5573361;25;20063;-81
2024/04/16 07:27:05;;;;;;;3.70;0.45;;;8.60;99.90;;;;;;5606780;25;20003;-79
2024/04/16 07:29:30;;;;;;;6.65;0.75;;;8.60;99.90;;;;;;5572909;25;20003;-82
2024/04/16 07:31:56;;;;;;;5.45;0.20;;;8.70;99.90;;;;;;5572621;25;19988;-80
2024/04/16 07:34:22;;;;;;;9.70;0.30;;;8.80;99.90;;;;;;5573557;25;19995;-80
2024/04/16 07:36:48;;;;;;;16.80;1.23;;;8.80;99.90;;;;;;5606676;25;20455;-79
2024/04/16 07:39:14;;;;;;;10.27;0.38;;;8.80;99.90;;;;;;5573942;25;20003;-79
2024/04/16 07:41:40;;;;;;;13.85;0.38;;;8.70;99.90;;;;;;5607194;25;20023;-79
2024/04/16 07:44:05;;;;;;;11.02;0.47;;;9.00;99.90;;;;;;5606799;25;20093;-79
2024/04/16 07:46:34;;;;;;;9.65;0.20;;;8.60;99.90;;;;;;5573182;25;20004;-79
2024/04/16 07:49:00;;;;;;;4.55;0.20;;;9.20;99.90;;;;;;5573268;25;19999;-79
2024/04/16 07:51:25;;;;;;;4.28;0.10;;;8.60;99.90;;;;;;5573243;25;20007;-80
2024/04/16 07:53:51;;;;;;;2.20;0.32;;;8.50;99.90;;;;;;5573156;25;20323;-79
2024/04/16 07:56:17;;;;;;;10.40;0.68;;;8.60;99.90;;;;;;5606548;25;20004;-79
2024/04/16 07:58:42;;;;;;;10.70;1.58;;;8.50;99.90;;;;;;5573569;25;20007;-79
2024/04/16 08:01:08;;;;;;;9.05;0.73;;;8.50;99.90;;;;;;5573282;25;20002;-79
2024/04/16 08:03:33;;;;;;;7.15;1.45;;;8.50;99.90;;;;;;5606968;25;20053;-80
2024/04/16 08:05:59;;;;;;;6.28;0.93;;;8.40;99.90;;;;;;5573620;25;20442;-80
2024/04/16 08:08:24;;;;;;;8.38;0.45;;;8.40;99.90;;;;;;5606750;25;20343;-79
2024/04/16 08:10:50;;;;;;;2.90;0.00;;;8.40;99.90;;;;;;5573164;25;20007;-79
2024/04/16 08:13:15;;;;;;;1.13;0.00;;;8.30;99.90;;;;;;5606706;25;20003;-79
2024/04/16 08:15:50;;;;;;;1.88;0.03;;;8.30;99.90;;;;;;5573766;25;20003;-79
2024/04/16 08:18:16;;;;;;;1.42;0.00;;;11.70;99.90;;;;;;5572965;25;20550;-80
2024/04/16 08:20:41;;;;;;;2.17;0.03;;;8.30;99.90;;;;;;5606118;25;20004;-79
2024/04/16 08:23:07;;;;;;;4.45;0.17;;;10.60;99.90;;;;;;5606088;25;20453;-80
2024/04/16 08:25:33;;;;;;;7.60;0.10;;;8.50;99.90;;;;;;5573233;25;20004;-80
2024/04/16 08:27:58;;;;;;;5.63;0.25;;;8.60;99.90;;;;;;5573406;25;19988;-80
2024/04/16 08:30:24;;;;;;;5.72;0.00;;;8.90;99.90;;;;;;5606649;25;19992;-81
2024/04/16 08:32:49;;;;;;;1.00;0.00;;;9.10;99.90;;;;;;5606109;25;19992;-80
2024/04/16 08:35:26;;;;;;;4.18;0.10;;;9.60;99.90;;;;;;5572671;25;19988;-80
2024/04/16 08:37:52;;;;;;;4.55;0.20;;;9.60;99.90;;;;;;5572643;25;19992;-80
2024/04/16 08:40:18;;;;;;;7.75;0.50;;;9.80;99.90;;;;;;5573311;25;19999;-80
2024/04/16 08:42:44;;;;;;;3.88;0.40;;;10.00;99.90;;;;;;5571923;25;19992;-80
2024/04/16 08:45:11;;;;;;;9.93;0.30;;;10.10;99.90;;;;;;5606287;25;20407;-80
2024/04/16 08:47:38;;;;;;;5.43;0.25;;;10.20;99.90;;;;;;5605675;25;20004;-80
2024/04/16 08:50:04;;;;;;;5.45;0.35;;;10.30;99.90;;;;;;5605644;25;20006;-80
2024/04/16 08:52:32;;;;;;;10.10;0.10;;;10.40;99.90;;;;;;5605147;25;19992;-80
2024/04/16 08:54:58;;;;;;;7.45;0.20;;;10.50;99.90;;;;;;5572222;25;19999;-80
2024/04/16 08:57:27;;;;;;;5.72;1.08;;;10.70;99.90;;;;;;5570955;25;20058;-80
2024/04/16 08:59:53;;;;;;;5.88;0.30;;;10.90;99.90;;;;;;5572042;25;20007;-80
2024/04/16 09:02:19;;;;;;;4.85;0.32;;;11.10;99.90;;;;;;5572826;25;20039;-80
2024/04/16 09:04:47;;;;;;;4.72;0.25;;;11.20;99.90;;;;;;5605356;25;20035;-81
2024/04/16 09:07:13;;;;;;;4.72;0.17;;;11.10;99.90;;;;;;5571804;25;20063;-81
2024/04/16 09:09:39;;;;;;;2.75;0.05;;;11.30;99.90;;;;;;5606014;25;19995;-80
2024/04/16 09:12:05;;;;;;;3.13;0.00;;;11.50;99.90;;;;;;5605330;25;20066;-80
2024/04/16 09:14:31;;;;;;;2.00;0.00;;;11.30;99.90;;;;;;5605918;25;20436;-80
2024/04/16 09:16:56;;;;;;;2.50;0.10;;;11.10;99.90;;;;;;5571820;25;19999;-81
2024/04/16 09:19:26;;;;;;;3.38;0.00;;;11.10;99.90;;;;;;5571449;25;20007;-80
2024/04/16 09:21:57;;;;;;;4.20;0.38;;;11.00;99.90;;;;;;5571162;25;19992;-80
2024/04/16 09:24:23;;;;;;;2.08;0.15;;;11.10;99.90;;;;;;5604544;25;20340;-80
2024/04/16 09:26:48;;;;;;;1.50;0.03;;;11.20;99.90;;;;;;5572199;25;19988;-80
2024/04/16 09:29:23;;;;;;;3.20;0.20;;;11.30;99.90;;;;;;5605579;25;20064;-80
2024/04/16 09:32:03;;;;;;;7.65;0.00;;;11.70;99.90;;;;;;5572545;25;20451;-80
2024/04/16 09:34:29;;;;;;;7.78;1.05;;;11.70;99.90;;;;;;5571903;25;20063;-81
2024/04/16 09:36:55;;;;;;;2.45;0.00;;;11.90;99.90;;;;;;5571989;25;19988;-80
2024/04/16 09:39:22;;;;;;;7.88;0.20;;;12.00;99.90;;;;;;5605056;25;19991;-79
2024/04/16 09:41:48;;;;;;;0.98;0.00;;;12.00;99.90;;;;;;5571661;25;19992;-80
2024/04/16 09:44:15;;;;;;;2.47;0.00;;;12.10;99.90;;;;;;5605655;25;19996;-79
2024/04/16 09:46:43;;;;;;;2.33;0.15;;;12.30;99.90;;;;;;5605206;25;19991;-79
2024/04/16 09:49:09;;;;;;;5.13;0.30;;;12.20;99.90;;;;;;5605185;25;19992;-80
2024/04/16 09:51:37;;;;;;;7.20;0.32;;;12.00;99.90;;;;;;5571539;25;20418;-80
2024/04/16 09:54:04;;;;;;;4.90;0.00;;;12.00;99.90;;;;;;5605263;25;20003;-80
2024/04/16 09:56:33;;;;;;;1.35;0.00;;;11.80;99.90;;;;;;5571191;25;19999;-80
2024/04/16 09:58:59;;;;;;;2.83;0.10;;;11.80;99.90;;;;;;5570064;25;19996;-80
2024/04/16 10:01:25;;;;;;;2.80;0.05;;;;;;;;;;5604738;25;20000;-80
2024/04/16 10:03:54;;;;;;;3.60;0.00;;;11.80;99.90;;;;;;5570908;25;19988;-80
2024/04/16 10:06:19;;;;;;;2.55;0.10;;;12.10;99.90;;;;;;5571610;25;19992;-80
2024/04/16 10:08:45;;;;;;;1.70;0.05;;;12.20;99.90;;;;;;5571133;25;20446;-81
2024/04/16 10:11:11;;;;;;;0.47;0.00;;;12.10;99.90;;;;;;5604836;25;19995;-80
2024/04/16 10:13:40;;;;;;;1.63;0.05;;;12.10;99.90;;;;;;5571242;25;20007;-80
2024/04/16 10:16:16;;;;;;;2.63;0.00;;;11.90;99.90;;;;;;5571219;25;20011;-80
2024/04/16 10:18:42;;;;;;;0.90;0.35;;;11.90;99.90;;;;;;5571118;25;19996;-80
2024/04/16 10:21:10;;;;;;;1.55;0.10;;;12.10;99.90;;;;;;5604007;25;19992;-80
2024/04/16 10:23:40;;;;;;;1.93;0.10;;;12.40;99.90;;;;;;5604021;25;19992;-79
2024/04/16 10:26:06;;;;;;;2.25;0.20;;;15.80;99.90;;;;;;5570341;25;20020;-80
2024/04/16 10:28:33;;;;;;;4.82;0.85;;;12.60;99.90;;;;;;5604050;25;20066;-79
2024/04/16 10:30:59;;;;;;;16.45;0.57;;;12.60;99.90;;;;;;5603208;25;19992;-80
2024/04/16 10:33:26;;;;;;;0.60;0.20;;;12.40;99.90;;;;;;5570931;25;20481;-80
2024/04/16 10:35:53;;;;;;;1.35;0.10;;;12.40;99.90;;;;;;5574558;25;20006;-79
2024/04/16 10:38:19;;;;;;;1.23;0.00;;;12.50;99.90;;;;;;5574472;25;20024;-80
2024/04/16 10:40:54;;;;;;;3.85;0.00;;;12.30;99.90;;;;;;5608654;25;20003;-80
2024/04/16 10:43:23;;;;;;;5.22;0.00;;;12.20;99.90;;;;;;5572817;25;20089;-78
2024/04/16 10:45:49;;;;;;;3.20;0.00;;;12.30;99.90;;;;;;5606180;25;20010;-80
2024/04/16 10:48:19;;;;;;;3.20;0.00;;;12.40;99.90;;;;;;5573945;25;19992;-78
2024/04/16 10:50:45;;;;;;;9.20;1.00;;;;;;;;;;5574297;25;19989;-79
2024/04/16 10:53:15;;;;;;;1.30;0.28;;;12.50;99.90;;;;;;5606970;25;19996;-79
2024/04/16 10:55:42;;;;;;;8.93;1.00;;;12.60;99.90;;;;;;5573279;25;20036;-80
2024/04/16 10:58:15;;;;;;;3.00;0.20;;;13.10;99.90;;;;;;5573301;25;20065;-80
2024/04/16 11:00:41;;;;;;;1.27;0.00;;;13.10;99.90;;;;;;5573539;25;19996;-79
2024/04/16 11:03:09;;;;;;;2.70;0.00;;;13.20;99.90;;;;;;5573464;25;20003;-80
2024/04/16 11:05:37;;;;;;;2.50;0.00;;;13.30;99.90;;;;;;5573445;25;20016;-79
2024/04/16 11:08:03;;;;;;;1.88;0.00;;;13.00;99.90;;;;;;5573869;25;20424;-80
2024/04/16 11:10:29;;;;;;;1.13;0.00;;;13.00;99.90;;;;;;5606869;25;20004;-81
2024/04/16 11:12:57;;;;;;;4.40;0.55;;;13.00;99.90;;;;;;5606397;25;20078;-78
2024/04/16 11:15:23;;;;;;;3.65;0.00;;;12.90;99.90;;;;;;5607777;25;19996;-80
2024/04/16 11:17:49;;;;;;;1.70;0.20;;;13.00;99.90;;;;;;5607606;25;20032;-80
2024/04/16 11:20:15;;;;;;;6.28;0.00;;;13.00;99.90;;;;;;5606835;25;20458;-79
2024/04/16 11:22:41;;;;;;;2.00;0.00;;;13.00;99.90;;;;;;5607036;25;20024;-79
2024/04/16 11:25:14;;;;;;;2.90;0.00;;;12.90;99.90;;;;;;5606817;25;19996;-80
2024/04/16 11:27:40;;;;;;;1.00;0.00;;;12.70;99.90;;;;;;5606049;25;19996;-77
2024/04/16 11:30:06;;;;;;;0.70;0.00;;;12.60;99.90;;;;;;5570977;25;20062;-75
2024/04/16 11:32:32;;;;;;;1.45;0.00;;;12.70;99.90;;;;;;5604271;25;20002;-77
2024/04/16 11:34:57;;;;;;;1.52;0.00;;;13.40;99.90;;;;;;5571214;25;19992;-77
2024/04/16 11:37:23;;;;;;;0.22;0.00;;;13.40;99.90;;;;;;5571328;25;19992;-77
2024/04/16 11:39:49;;;;;;;1.58;0.00;;;13.90;99.90;;;;;;5570989;25;20007;-77
2024/04/16 11:42:14;;;;;;;1.08;0.00;;;14.50;99.90;;;;;;5604690;25;20007;-77
2024/04/16 11:44:40;;;;;;;1.00;0.00;;;14.50;99.90;;;;;;5604504;25;19992;-77
2024/04/16 11:47:10;;;;;;;0.65;0.00;;;14.70;99.90;;;;;;5603237;25;19996;-77
2024/04/16 11:49:37;;;;;;;1.15;0.00;;;14.70;99.90;;;;;;5604392;25;20427;-77
2024/04/16 11:52:06;;;;;;;2.97;0.28;;;14.70;99.90;;;;;;5570794;25;19988;-76
2024/04/16 11:54:34;;;;;;;0.63;0.00;;;15.30;99.90;;;;;;5604030;25;20007;-76
2024/04/16 11:57:04;;;;;;;1.15;0.00;;;14.40;99.90;;;;;;5569889;25;20411;-76
2024/04/16 11:59:30;;;;;;;2.10;0.00;;;14.30;99.90;;;;;;5602378;25;20006;-75
2024/04/16 12:01:56;;;;;;;1.65;0.00;;;14.30;99.90;;;;;;5603809;25;19996;-75
2024/04/16 12:04:21;;;;;;;0.70;0.00;;;13.70;99.90;;;;;;5604040;25;19995;-76
2024/04/16 12:06:47;;;;;;;1.40;0.00;;;13.50;99.90;;;;;;5604071;25;20008;-76
2024/04/16 12:09:13;;;;;;;1.98;0.08;;;13.40;99.90;;;;;;5603274;25;20000;-76
2024/04/16 12:11:39;;;;;;;0.28;0.00;;;13.30;99.90;;;;;;5603394;25;20008;-76
2024/04/16 12:14:06;;;;;;;2.00;0.00;;;13.10;99.90;;;;;;5603558;25;20028;-76
2024/04/16 12:16:33;;;;;;;1.02;0.00;;;13.00;99.90;;;;;;5603931;25;19996;-76
2024/04/16 12:18:59;;;;;;;0.55;0.00;;;13.00;99.90;;;;;;5603628;25;19995;-76
2024/04/16 12:21:25;;;;;;;2.50;0.10;;;13.20;99.90;;;;;;5569933;25;20463;-76
2024/04/16 12:23:52;;;;;;;3.70;0.00;;;13.20;99.90;;;;;;5603479;25;19996;-77
2024/04/16 12:26:18;;;;;;;1.50;0.28;;;13.20;99.90;;;;;;5603652;25;19991;-76
2024/04/16 12:28:45;;;;;;;2.70;0.30;;;12.80;99.90;;;;;;5603445;25;20317;-76
2024/04/16 12:31:11;;;;;;;1.17;0.00;;;12.80;99.90;;;;;;5569930;25;19992;-76
2024/04/16 12:33:37;;;;;;;1.08;0.63;;;12.60;99.90;;;;;;5570096;25;20448;-76
2024/04/16 12:36:03;;;;;;;3.30;0.22;;;12.70;99.90;;;;;;5603722;25;20075;-76
2024/04/16 12:38:32;;;;;;;2.20;0.08;;;13.10;99.90;;;;;;5569587;25;20007;-76
2024/04/16 12:40:59;;;;;;;3.00;0.43;;;13.10;99.90;;;;;;5602569;25;20007;-76
2024/04/16 12:43:25;;;;;;;2.75;0.00;;;13.20;99.90;;;;;;5603385;25;20000;-76
2024/04/16 12:45:58;;;;;;;0.15;0.00;;;13.20;99.90;;;;;;5602920;25;20071;-76
2024/04/16 12:48:25;;;;;;;5.80;0.40;;;13.10;99.90;;;;;;5603964;25;19995;-76
2024/04/16 12:50:51;;;;;;;1.13;0.00;;;;;;;;;;5569761;25;19988;-76
2024/04/16 12:53:17;;;;;;;5.20;0.20;;;12.70;99.90;;;;;;5602917;25;20004;-77